sensor_id;sensor_type;location;lat;lon;timestamp;P1;durP1;ratioP1;P2;durP2;ratioP2
20203;SDS011;10261;49.010;12.034;2023-06-22T00:00:13;7.97;;;6.60;;
20203;SDS011;10261;49.010;12.034;2023-06-22T00:01:16;8.18;;;5.88;;
20203;SDS011;10261;49.010;12.034;2023-06-22T00:02:19;8.68;;;6.60;;
20203;SDS011;10261;49.010;12.034;2023-06-22T00:03:21;19.25;;;6.35;;
20203;SDS011;10261;49.010;12.034;2023-06-22T00:04:26;8.80;;;6.43;;
20203;SDS011;10261;49.010;12.034;2023-06-22T00:05:28;8.10;;;5.75;;
20203;SDS011;10261;49.010;12.034;2023-06-22T00:06:31;10.20;;;6.13;;
20203;SDS011;10261;49.010;12.034;2023-06-22T00:07:33;9.63;;;5.85;;
20203;SDS011;10261;49.010;12.034;2023-06-22T00:08:36;13.10;;;6.10;;
20203;SDS011;10261;49.010;12.034;2023-06-22T00:09:38;7.95;;;6.00;;
20203;SDS011;10261;49.010;12.034;2023-06-22T00:10:41;6.68;;;5.95;;
20203;SDS011;10261;49.010;12.034;2023-06-22T00:11:43;8.48;;;6.60;;
20203;SDS011;10261;49.010;12.034;2023-06-22T00:12:46;7.97;;;6.30;;
20203;SDS011;10261;49.010;12.034;2023-06-22T00:13:48;11.63;;;6.18;;
20203;SDS011;10261;49.010;12.034;2023-06-22T00:14:52;11.55;;;6.43;;
20203;SDS011;10261;49.010;12.034;2023-06-22T00:15:54;6.75;;;6.05;;
20203;SDS011;10261;49.010;12.034;2023-06-22T00:16:58;8.85;;;6.38;;
20203;SDS011;10261;49.010;12.034;2023-06-22T00:18:00;11.98;;;7.07;;
20203;SDS011;10261;49.010;12.034;2023-06-22T00:19:03;9.10;;;6.50;;
20203;SDS011;10261;49.010;12.034;2023-06-22T00:20:07;9.65;;;5.95;;
20203;SDS011;10261;49.010;12.034;2023-06-22T00:21:11;11.85;;;6.85;;
20203;SDS011;10261;49.010;12.034;2023-06-22T00:22:13;7.60;;;5.90;;
20203;SDS011;10261;49.010;12.034;2023-06-22T00:23:18;9.30;;;6.03;;
20203;SDS011;10261;49.010;12.034;2023-06-22T00:24:20;8.38;;;5.75;;
20203;SDS011;10261;49.010;12.034;2023-06-22T00:25:23;10.02;;;6.22;;
20203;SDS011;10261;49.010;12.034;2023-06-22T00:26:25;7.18;;;5.53;;
20203;SDS011;10261;49.010;12.034;2023-06-22T00:27:28;7.22;;;5.80;;
20203;SDS011;10261;49.010;12.034;2023-06-22T00:28:30;11.07;;;6.47;;
20203;SDS011;10261;49.010;12.034;2023-06-22T00:29:33;10.75;;;6.70;;
20203;SDS011;10261;49.010;12.034;2023-06-22T00:30:35;8.77;;;6.05;;
20203;SDS011;10261;49.010;12.034;2023-06-22T00:31:38;8.40;;;6.35;;
20203;SDS011;10261;49.010;12.034;2023-06-22T00:32:41;8.68;;;6.75;;
20203;SDS011;10261;49.010;12.034;2023-06-22T00:33:44;8.38;;;5.75;;
20203;SDS011;10261;49.010;12.034;2023-06-22T00:34:46;10.68;;;6.95;;
20203;SDS011;10261;49.010;12.034;2023-06-22T00:35:49;8.70;;;6.35;;
20203;SDS011;10261;49.010;12.034;2023-06-22T00:36:54;11.00;;;6.80;;
20203;SDS011;10261;49.010;12.034;2023-06-22T00:37:56;7.38;;;6.40;;
20203;SDS011;10261;49.010;12.034;2023-06-22T00:39:02;8.20;;;6.70;;
20203;SDS011;10261;49.010;12.034;2023-06-22T00:40:05;7.68;;;6.25;;
20203;SDS011;10261;49.010;12.034;2023-06-22T00:41:09;13.38;;;7.75;;
20203;SDS011;10261;49.010;12.034;2023-06-22T00:42:11;12.02;;;6.78;;
20203;SDS011;10261;49.010;12.034;2023-06-22T00:43:13;11.57;;;7.03;;
20203;SDS011;10261;49.010;12.034;2023-06-22T00:44:16;12.70;;;6.97;;
20203;SDS011;10261;49.010;12.034;2023-06-22T00:45:18;8.85;;;6.15;;
20203;SDS011;10261;49.010;12.034;2023-06-22T00:46:22;8.73;;;6.10;;
20203;SDS011;10261;49.010;12.034;2023-06-22T00:47:26;14.18;;;6.78;;
20203;SDS011;10261;49.010;12.034;2023-06-22T00:48:30;11.07;;;6.85;;
20203;SDS011;10261;49.010;12.034;2023-06-22T00:49:33;11.77;;;6.68;;
20203;SDS011;10261;49.010;12.034;2023-06-22T00:50:35;12.57;;;7.60;;
20203;SDS011;10261;49.010;12.034;2023-06-22T00:51:38;10.27;;;7.07;;
20203;SDS011;10261;49.010;12.034;2023-06-22T00:52:40;7.65;;;6.22;;
20203;SDS011;10261;49.010;12.034;2023-06-22T00:53:47;10.90;;;6.75;;
20203;SDS011;10261;49.010;12.034;2023-06-22T00:54:49;13.15;;;7.28;;
20203;SDS011;10261;49.010;12.034;2023-06-22T00:55:52;13.05;;;6.80;;
20203;SDS011;10261;49.010;12.034;2023-06-22T00:56:54;13.07;;;6.40;;
20203;SDS011;10261;49.010;12.034;2023-06-22T00:57:58;11.10;;;7.47;;
20203;SDS011;10261;49.010;12.034;2023-06-22T00:59:00;11.20;;;7.65;;
20203;SDS011;10261;49.010;12.034;2023-06-22T01:00:05;9.57;;;7.45;;
20203;SDS011;10261;49.010;12.034;2023-06-22T01:01:09;10.35;;;6.97;;
20203;SDS011;10261;49.010;12.034;2023-06-22T01:02:12;9.25;;;6.28;;
20203;SDS011;10261;49.010;12.034;2023-06-22T01:03:14;12.05;;;7.35;;
20203;SDS011;10261;49.010;12.034;2023-06-22T01:04:19;10.85;;;6.97;;
20203;SDS011;10261;49.010;12.034;2023-06-22T01:05:23;7.10;;;6.10;;
20203;SDS011;10261;49.010;12.034;2023-06-22T01:06:26;7.43;;;6.15;;
20203;SDS011;10261;49.010;12.034;2023-06-22T01:07:38;11.60;;;6.72;;
20203;SDS011;10261;49.010;12.034;2023-06-22T01:08:46;10.20;;;6.88;;
20203;SDS011;10261;49.010;12.034;2023-06-22T01:09:55;14.27;;;6.93;;
20203;SDS011;10261;49.010;12.034;2023-06-22T01:11:01;10.38;;;6.00;;
20203;SDS011;10261;49.010;12.034;2023-06-22T01:12:10;10.88;;;6.90;;
20203;SDS011;10261;49.010;12.034;2023-06-22T01:13:16;11.02;;;6.10;;
20203;SDS011;10261;49.010;12.034;2023-06-22T01:14:27;11.60;;;6.90;;
20203;SDS011;10261;49.010;12.034;2023-06-22T01:15:36;10.82;;;7.32;;
20203;SDS011;10261;49.010;12.034;2023-06-22T01:16:42;10.57;;;6.93;;
20203;SDS011;10261;49.010;12.034;2023-06-22T01:17:47;13.10;;;6.88;;
20203;SDS011;10261;49.010;12.034;2023-06-22T01:18:52;11.90;;;5.88;;
20203;SDS011;10261;49.010;12.034;2023-06-22T01:19:58;12.57;;;6.82;;
20203;SDS011;10261;49.010;12.034;2023-06-22T01:21:06;13.88;;;7.70;;
20203;SDS011;10261;49.010;12.034;2023-06-22T01:22:10;9.63;;;6.18;;
20203;SDS011;10261;49.010;12.034;2023-06-22T01:23:23;13.73;;;5.85;;
20203;SDS011;10261;49.010;12.034;2023-06-22T01:24:32;12.07;;;6.88;;
20203;SDS011;10261;49.010;12.034;2023-06-22T01:25:45;10.73;;;7.07;;
20203;SDS011;10261;49.010;12.034;2023-06-22T01:26:54;5.90;;;5.20;;
20203;SDS011;10261;49.010;12.034;2023-06-22T01:28:03;14.73;;;6.68;;
20203;SDS011;10261;49.010;12.034;2023-06-22T01:29:21;9.18;;;6.13;;
20203;SDS011;10261;49.010;12.034;2023-06-22T01:30:24;14.02;;;7.10;;
20203;SDS011;10261;49.010;12.034;2023-06-22T01:31:28;11.80;;;7.05;;
20203;SDS011;10261;49.010;12.034;2023-06-22T01:32:31;7.50;;;6.80;;
20203;SDS011;10261;49.010;12.034;2023-06-22T01:33:37;9.27;;;6.50;;
20203;SDS011;10261;49.010;12.034;2023-06-22T01:34:43;9.52;;;6.78;;
20203;SDS011;10261;49.010;12.034;2023-06-22T01:35:47;15.18;;;6.30;;
20203;SDS011;10261;49.010;12.034;2023-06-22T01:36:49;11.75;;;7.03;;
20203;SDS011;10261;49.010;12.034;2023-06-22T01:37:53;11.93;;;6.70;;
20203;SDS011;10261;49.010;12.034;2023-06-22T01:38:56;10.43;;;6.38;;
20203;SDS011;10261;49.010;12.034;2023-06-22T01:40:00;8.30;;;6.50;;
20203;SDS011;10261;49.010;12.034;2023-06-22T01:41:05;9.15;;;6.93;;
20203;SDS011;10261;49.010;12.034;2023-06-22T01:42:08;10.02;;;5.80;;
20203;SDS011;10261;49.010;12.034;2023-06-22T01:43:11;10.18;;;6.53;;
20203;SDS011;10261;49.010;12.034;2023-06-22T01:44:14;7.00;;;6.30;;
20203;SDS011;10261;49.010;12.034;2023-06-22T01:45:18;8.55;;;6.40;;
20203;SDS011;10261;49.010;12.034;2023-06-22T01:46:21;9.45;;;7.13;;
20203;SDS011;10261;49.010;12.034;2023-06-22T01:47:24;8.38;;;6.00;;
20203;SDS011;10261;49.010;12.034;2023-06-22T01:48:28;12.32;;;6.35;;
20203;SDS011;10261;49.010;12.034;2023-06-22T01:49:32;8.18;;;6.50;;
20203;SDS011;10261;49.010;12.034;2023-06-22T01:50:34;9.73;;;5.88;;
20203;SDS011;10261;49.010;12.034;2023-06-22T01:51:37;10.20;;;6.20;;
20203;SDS011;10261;49.010;12.034;2023-06-22T01:52:39;9.38;;;7.25;;
20203;SDS011;10261;49.010;12.034;2023-06-22T01:53:42;12.38;;;7.20;;
20203;SDS011;10261;49.010;12.034;2023-06-22T01:54:44;10.27;;;6.43;;
20203;SDS011;10261;49.010;12.034;2023-06-22T01:55:47;9.30;;;6.40;;
20203;SDS011;10261;49.010;12.034;2023-06-22T01:56:49;8.70;;;6.15;;
20203;SDS011;10261;49.010;12.034;2023-06-22T01:57:52;8.85;;;5.90;;
20203;SDS011;10261;49.010;12.034;2023-06-22T01:58:55;9.38;;;6.60;;
20203;SDS011;10261;49.010;12.034;2023-06-22T02:00:06;9.63;;;7.13;;
20203;SDS011;10261;49.010;12.034;2023-06-22T02:01:14;7.55;;;6.10;;
20203;SDS011;10261;49.010;12.034;2023-06-22T02:02:22;13.05;;;6.75;;
20203;SDS011;10261;49.010;12.034;2023-06-22T02:03:31;10.68;;;5.80;;
20203;SDS011;10261;49.010;12.034;2023-06-22T02:04:40;8.30;;;6.85;;
20203;SDS011;10261;49.010;12.034;2023-06-22T02:05:48;11.82;;;6.43;;
20203;SDS011;10261;49.010;12.034;2023-06-22T02:06:55;6.75;;;5.82;;
20203;SDS011;10261;49.010;12.034;2023-06-22T02:08:00;7.90;;;6.15;;
20203;SDS011;10261;49.010;12.034;2023-06-22T02:09:09;8.23;;;6.40;;
20203;SDS011;10261;49.010;12.034;2023-06-22T02:10:16;10.07;;;6.30;;
20203;SDS011;10261;49.010;12.034;2023-06-22T02:11:22;8.40;;;6.13;;
20203;SDS011;10261;49.010;12.034;2023-06-22T02:12:27;13.80;;;6.70;;
20203;SDS011;10261;49.010;12.034;2023-06-22T02:13:31;11.15;;;6.70;;
20203;SDS011;10261;49.010;12.034;2023-06-22T02:14:34;8.98;;;6.80;;
20203;SDS011;10261;49.010;12.034;2023-06-22T02:15:37;8.13;;;6.03;;
20203;SDS011;10261;49.010;12.034;2023-06-22T02:16:41;9.55;;;6.10;;
20203;SDS011;10261;49.010;12.034;2023-06-22T02:17:44;8.68;;;6.55;;
20203;SDS011;10261;49.010;12.034;2023-06-22T02:18:47;8.40;;;6.30;;
20203;SDS011;10261;49.010;12.034;2023-06-22T02:19:52;7.28;;;5.93;;
20203;SDS011;10261;49.010;12.034;2023-06-22T02:20:54;8.80;;;6.57;;
20203;SDS011;10261;49.010;12.034;2023-06-22T02:21:57;8.95;;;5.78;;
20203;SDS011;10261;49.010;12.034;2023-06-22T02:22:58;7.70;;;5.50;;
20203;SDS011;10261;49.010;12.034;2023-06-22T02:24:01;9.82;;;6.60;;
20203;SDS011;10261;49.010;12.034;2023-06-22T02:25:04;9.90;;;6.95;;
20203;SDS011;10261;49.010;12.034;2023-06-22T02:26:07;8.27;;;6.05;;
20203;SDS011;10261;49.010;12.034;2023-06-22T02:27:09;7.55;;;6.43;;
20203;SDS011;10261;49.010;12.034;2023-06-22T02:28:12;10.40;;;6.03;;
20203;SDS011;10261;49.010;12.034;2023-06-22T02:29:14;8.23;;;5.82;;
20203;SDS011;10261;49.010;12.034;2023-06-22T02:30:17;7.75;;;6.03;;
20203;SDS011;10261;49.010;12.034;2023-06-22T02:31:19;7.75;;;6.55;;
20203;SDS011;10261;49.010;12.034;2023-06-22T02:32:23;11.27;;;6.20;;
20203;SDS011;10261;49.010;12.034;2023-06-22T02:33:25;6.85;;;6.03;;
20203;SDS011;10261;49.010;12.034;2023-06-22T02:34:28;8.93;;;6.28;;
20203;SDS011;10261;49.010;12.034;2023-06-22T02:35:30;6.78;;;5.75;;
20203;SDS011;10261;49.010;12.034;2023-06-22T02:36:33;8.35;;;6.45;;
20203;SDS011;10261;49.010;12.034;2023-06-22T02:37:35;11.38;;;6.00;;
20203;SDS011;10261;49.010;12.034;2023-06-22T02:38:40;8.75;;;6.43;;
20203;SDS011;10261;49.010;12.034;2023-06-22T02:39:49;6.43;;;5.63;;
20203;SDS011;10261;49.010;12.034;2023-06-22T02:40:52;6.35;;;5.20;;
20203;SDS011;10261;49.010;12.034;2023-06-22T02:41:54;6.30;;;5.47;;
20203;SDS011;10261;49.010;12.034;2023-06-22T02:42:57;7.72;;;6.57;;
20203;SDS011;10261;49.010;12.034;2023-06-22T02:44:03;12.48;;;6.40;;
20203;SDS011;10261;49.010;12.034;2023-06-22T02:45:06;7.50;;;6.18;;
20203;SDS011;10261;49.010;12.034;2023-06-22T02:46:08;7.43;;;5.60;;
20203;SDS011;10261;49.010;12.034;2023-06-22T02:47:11;10.80;;;6.55;;
20203;SDS011;10261;49.010;12.034;2023-06-22T02:48:15;8.48;;;5.88;;
20203;SDS011;10261;49.010;12.034;2023-06-22T02:49:18;8.80;;;6.28;;
20203;SDS011;10261;49.010;12.034;2023-06-22T02:50:20;9.75;;;6.60;;
20203;SDS011;10261;49.010;12.034;2023-06-22T02:51:22;9.90;;;6.38;;
20203;SDS011;10261;49.010;12.034;2023-06-22T02:52:24;11.95;;;6.40;;
20203;SDS011;10261;49.010;12.034;2023-06-22T02:53:27;7.25;;;5.80;;
20203;SDS011;10261;49.010;12.034;2023-06-22T02:54:29;10.85;;;6.55;;
20203;SDS011;10261;49.010;12.034;2023-06-22T02:55:32;6.85;;;5.80;;
20203;SDS011;10261;49.010;12.034;2023-06-22T02:56:34;8.15;;;5.93;;
20203;SDS011;10261;49.010;12.034;2023-06-22T02:57:37;7.55;;;6.72;;
20203;SDS011;10261;49.010;12.034;2023-06-22T02:58:44;6.57;;;5.30;;
20203;SDS011;10261;49.010;12.034;2023-06-22T02:59:47;13.00;;;6.55;;
20203;SDS011;10261;49.010;12.034;2023-06-22T03:00:49;7.55;;;5.60;;
20203;SDS011;10261;49.010;12.034;2023-06-22T03:01:54;16.63;;;6.10;;
20203;SDS011;10261;49.010;12.034;2023-06-22T03:02:57;10.35;;;5.85;;
20203;SDS011;10261;49.010;12.034;2023-06-22T03:04:02;7.10;;;5.65;;
20203;SDS011;10261;49.010;12.034;2023-06-22T03:05:04;7.78;;;6.55;;
20203;SDS011;10261;49.010;12.034;2023-06-22T03:06:07;14.05;;;7.63;;
20203;SDS011;10261;49.010;12.034;2023-06-22T03:07:09;9.98;;;6.05;;
20203;SDS011;10261;49.010;12.034;2023-06-22T03:08:12;18.23;;;6.90;;
20203;SDS011;10261;49.010;12.034;2023-06-22T03:09:14;13.25;;;5.95;;
20203;SDS011;10261;49.010;12.034;2023-06-22T03:10:17;7.30;;;5.53;;
20203;SDS011;10261;49.010;12.034;2023-06-22T03:11:18;7.25;;;6.00;;
20203;SDS011;10261;49.010;12.034;2023-06-22T03:12:21;13.60;;;6.15;;
20203;SDS011;10261;49.010;12.034;2023-06-22T03:13:23;8.70;;;6.50;;
20203;SDS011;10261;49.010;12.034;2023-06-22T03:14:26;9.63;;;6.88;;
20203;SDS011;10261;49.010;12.034;2023-06-22T03:15:28;7.38;;;6.45;;
20203;SDS011;10261;49.010;12.034;2023-06-22T03:16:32;9.07;;;6.30;;
20203;SDS011;10261;49.010;12.034;2023-06-22T03:17:35;8.85;;;6.40;;
20203;SDS011;10261;49.010;12.034;2023-06-22T03:18:39;9.07;;;6.18;;
20203;SDS011;10261;49.010;12.034;2023-06-22T03:19:42;10.23;;;7.72;;
20203;SDS011;10261;49.010;12.034;2023-06-22T03:20:45;10.10;;;6.82;;
20203;SDS011;10261;49.010;12.034;2023-06-22T03:21:46;9.65;;;6.30;;
20203;SDS011;10261;49.010;12.034;2023-06-22T03:22:49;10.50;;;6.40;;
20203;SDS011;10261;49.010;12.034;2023-06-22T03:23:51;7.28;;;6.43;;
20203;SDS011;10261;49.010;12.034;2023-06-22T03:24:54;9.40;;;6.18;;
20203;SDS011;10261;49.010;12.034;2023-06-22T03:25:56;11.77;;;6.65;;
20203;SDS011;10261;49.010;12.034;2023-06-22T03:26:59;9.70;;;5.82;;
20203;SDS011;10261;49.010;12.034;2023-06-22T03:28:01;8.63;;;6.15;;
20203;SDS011;10261;49.010;12.034;2023-06-22T03:29:04;9.20;;;6.50;;
20203;SDS011;10261;49.010;12.034;2023-06-22T03:30:06;7.22;;;6.07;;
20203;SDS011;10261;49.010;12.034;2023-06-22T03:31:11;9.23;;;6.60;;
20203;SDS011;10261;49.010;12.034;2023-06-22T03:32:13;11.38;;;6.90;;
20203;SDS011;10261;49.010;12.034;2023-06-22T03:33:16;8.77;;;5.82;;
20203;SDS011;10261;49.010;12.034;2023-06-22T03:34:18;8.32;;;6.97;;
20203;SDS011;10261;49.010;12.034;2023-06-22T03:35:22;5.90;;;5.22;;
20203;SDS011;10261;49.010;12.034;2023-06-22T03:36:24;8.00;;;6.90;;
20203;SDS011;10261;49.010;12.034;2023-06-22T03:37:27;6.53;;;5.60;;
20203;SDS011;10261;49.010;12.034;2023-06-22T03:38:29;7.82;;;6.10;;
20203;SDS011;10261;49.010;12.034;2023-06-22T03:39:32;7.95;;;6.50;;
20203;SDS011;10261;49.010;12.034;2023-06-22T03:40:34;7.65;;;6.00;;
20203;SDS011;10261;49.010;12.034;2023-06-22T03:41:37;7.70;;;5.20;;
20203;SDS011;10261;49.010;12.034;2023-06-22T03:42:39;7.32;;;6.35;;
20203;SDS011;10261;49.010;12.034;2023-06-22T03:43:42;8.77;;;6.10;;
20203;SDS011;10261;49.010;12.034;2023-06-22T03:44:44;10.18;;;6.72;;
20203;SDS011;10261;49.010;12.034;2023-06-22T03:45:47;7.22;;;6.47;;
20203;SDS011;10261;49.010;12.034;2023-06-22T03:46:48;6.55;;;5.90;;
20203;SDS011;10261;49.010;12.034;2023-06-22T03:47:51;9.70;;;6.15;;
20203;SDS011;10261;49.010;12.034;2023-06-22T03:48:54;9.10;;;6.35;;
20203;SDS011;10261;49.010;12.034;2023-06-22T03:49:57;11.68;;;6.97;;
20203;SDS011;10261;49.010;12.034;2023-06-22T03:51:01;8.48;;;7.07;;
20203;SDS011;10261;49.010;12.034;2023-06-22T03:52:05;8.02;;;6.07;;
20203;SDS011;10261;49.010;12.034;2023-06-22T03:53:07;8.63;;;7.03;;
20203;SDS011;10261;49.010;12.034;2023-06-22T03:54:10;11.15;;;6.40;;
20203;SDS011;10261;49.010;12.034;2023-06-22T03:55:12;8.60;;;6.93;;
20203;SDS011;10261;49.010;12.034;2023-06-22T03:56:15;6.40;;;5.80;;
20203;SDS011;10261;49.010;12.034;2023-06-22T03:57:21;8.75;;;7.15;;
20203;SDS011;10261;49.010;12.034;2023-06-22T03:58:24;9.60;;;6.57;;
20203;SDS011;10261;49.010;12.034;2023-06-22T03:59:26;9.68;;;6.47;;
20203;SDS011;10261;49.010;12.034;2023-06-22T04:00:29;9.40;;;6.50;;
20203;SDS011;10261;49.010;12.034;2023-06-22T04:01:31;8.88;;;6.15;;
20203;SDS011;10261;49.010;12.034;2023-06-22T04:02:34;13.38;;;7.07;;
20203;SDS011;10261;49.010;12.034;2023-06-22T04:03:36;9.27;;;6.50;;
20203;SDS011;10261;49.010;12.034;2023-06-22T04:04:39;11.30;;;7.53;;
20203;SDS011;10261;49.010;12.034;2023-06-22T04:05:41;8.73;;;6.15;;
20203;SDS011;10261;49.010;12.034;2023-06-22T04:06:46;8.15;;;6.40;;
20203;SDS011;10261;49.010;12.034;2023-06-22T04:07:48;14.10;;;7.03;;
20203;SDS011;10261;49.010;12.034;2023-06-22T04:08:50;11.00;;;7.28;;
20203;SDS011;10261;49.010;12.034;2023-06-22T04:09:52;8.65;;;7.00;;
20203;SDS011;10261;49.010;12.034;2023-06-22T04:10:55;11.27;;;6.95;;
20203;SDS011;10261;49.010;12.034;2023-06-22T04:11:57;9.63;;;7.63;;
20203;SDS011;10261;49.010;12.034;2023-06-22T04:13:00;10.40;;;7.32;;
20203;SDS011;10261;49.010;12.034;2023-06-22T04:14:03;7.43;;;6.18;;
20203;SDS011;10261;49.010;12.034;2023-06-22T04:15:06;11.57;;;7.35;;
20203;SDS011;10261;49.010;12.034;2023-06-22T04:16:09;9.23;;;7.47;;
20203;SDS011;10261;49.010;12.034;2023-06-22T04:17:12;8.52;;;7.18;;
20203;SDS011;10261;49.010;12.034;2023-06-22T04:18:15;10.82;;;7.47;;
20203;SDS011;10261;49.010;12.034;2023-06-22T04:19:17;8.85;;;7.45;;
20203;SDS011;10261;49.010;12.034;2023-06-22T04:20:20;11.32;;;7.13;;
20203;SDS011;10261;49.010;12.034;2023-06-22T04:21:22;11.77;;;7.90;;
20203;SDS011;10261;49.010;12.034;2023-06-22T04:22:26;12.07;;;8.23;;
20203;SDS011;10261;49.010;12.034;2023-06-22T04:23:28;11.20;;;7.25;;
20203;SDS011;10261;49.010;12.034;2023-06-22T04:24:31;10.60;;;8.18;;
20203;SDS011;10261;49.010;12.034;2023-06-22T04:25:33;10.25;;;7.32;;
20203;SDS011;10261;49.010;12.034;2023-06-22T04:26:36;10.15;;;7.43;;
20203;SDS011;10261;49.010;12.034;2023-06-22T04:27:38;13.85;;;7.55;;
20203;SDS011;10261;49.010;12.034;2023-06-22T04:28:41;12.05;;;7.68;;
20203;SDS011;10261;49.010;12.034;2023-06-22T04:29:43;11.07;;;7.70;;
20203;SDS011;10261;49.010;12.034;2023-06-22T04:30:49;8.05;;;6.75;;
20203;SDS011;10261;49.010;12.034;2023-06-22T04:31:51;9.57;;;6.78;;
20203;SDS011;10261;49.010;12.034;2023-06-22T04:32:57;11.02;;;7.22;;
20203;SDS011;10261;49.010;12.034;2023-06-22T04:33:59;13.13;;;6.75;;
20203;SDS011;10261;49.010;12.034;2023-06-22T04:35:07;9.60;;;7.40;;
20203;SDS011;10261;49.010;12.034;2023-06-22T04:36:09;9.07;;;7.72;;
20203;SDS011;10261;49.010;12.034;2023-06-22T04:37:14;13.00;;;8.20;;
20203;SDS011;10261;49.010;12.034;2023-06-22T04:38:18;11.30;;;8.93;;
20203;SDS011;10261;49.010;12.034;2023-06-22T04:39:23;12.82;;;7.43;;
20203;SDS011;10261;49.010;12.034;2023-06-22T04:40:25;8.07;;;6.72;;
20203;SDS011;10261;49.010;12.034;2023-06-22T04:41:28;10.35;;;7.97;;
20203;SDS011;10261;49.010;12.034;2023-06-22T04:42:30;9.68;;;7.43;;
20203;SDS011;10261;49.010;12.034;2023-06-22T04:43:34;16.63;;;8.13;;
20203;SDS011;10261;49.010;12.034;2023-06-22T04:44:36;14.80;;;7.30;;
20203;SDS011;10261;49.010;12.034;2023-06-22T04:45:39;10.30;;;7.60;;
20203;SDS011;10261;49.010;12.034;2023-06-22T04:46:41;10.20;;;7.18;;
20203;SDS011;10261;49.010;12.034;2023-06-22T04:47:45;12.65;;;8.15;;
20203;SDS011;10261;49.010;12.034;2023-06-22T04:48:48;12.93;;;7.68;;
20203;SDS011;10261;49.010;12.034;2023-06-22T04:49:50;10.02;;;7.78;;
20203;SDS011;10261;49.010;12.034;2023-06-22T04:50:53;12.35;;;7.25;;
20203;SDS011;10261;49.010;12.034;2023-06-22T04:51:57;8.70;;;7.75;;
20203;SDS011;10261;49.010;12.034;2023-06-22T04:52:58;10.00;;;7.85;;
20203;SDS011;10261;49.010;12.034;2023-06-22T04:54:03;7.85;;;7.15;;
20203;SDS011;10261;49.010;12.034;2023-06-22T04:55:07;12.25;;;8.02;;
20203;SDS011;10261;49.010;12.034;2023-06-22T04:56:10;10.68;;;8.50;;
20203;SDS011;10261;49.010;12.034;2023-06-22T04:57:13;10.55;;;8.23;;
20203;SDS011;10261;49.010;12.034;2023-06-22T04:58:16;10.77;;;8.40;;
20203;SDS011;10261;49.010;12.034;2023-06-22T04:59:21;11.50;;;8.32;;
20203;SDS011;10261;49.010;12.034;2023-06-22T05:00:24;11.75;;;8.80;;
20203;SDS011;10261;49.010;12.034;2023-06-22T05:01:26;13.52;;;8.45;;
20203;SDS011;10261;49.010;12.034;2023-06-22T05:02:29;11.18;;;7.30;;
20203;SDS011;10261;49.010;12.034;2023-06-22T05:03:34;13.10;;;8.60;;
20203;SDS011;10261;49.010;12.034;2023-06-22T05:04:38;9.02;;;7.40;;
20203;SDS011;10261;49.010;12.034;2023-06-22T05:05:41;12.52;;;8.90;;
20203;SDS011;10261;49.010;12.034;2023-06-22T05:06:44;11.02;;;8.98;;
20203;SDS011;10261;49.010;12.034;2023-06-22T05:07:46;10.13;;;7.65;;
20203;SDS011;10261;49.010;12.034;2023-06-22T05:08:54;10.68;;;7.35;;
20203;SDS011;10261;49.010;12.034;2023-06-22T05:10:00;15.65;;;9.98;;
20203;SDS011;10261;49.010;12.034;2023-06-22T05:11:03;10.30;;;8.02;;
20203;SDS011;10261;49.010;12.034;2023-06-22T05:12:07;10.30;;;8.32;;
20203;SDS011;10261;49.010;12.034;2023-06-22T05:13:11;11.90;;;9.23;;
20203;SDS011;10261;49.010;12.034;2023-06-22T05:14:13;9.70;;;8.38;;
20203;SDS011;10261;49.010;12.034;2023-06-22T05:15:16;11.57;;;8.70;;
20203;SDS011;10261;49.010;12.034;2023-06-22T05:16:20;13.27;;;8.80;;
20203;SDS011;10261;49.010;12.034;2023-06-22T05:17:25;11.40;;;8.65;;
20203;SDS011;10261;49.010;12.034;2023-06-22T05:18:28;19.67;;;9.15;;
20203;SDS011;10261;49.010;12.034;2023-06-22T05:19:31;9.30;;;8.00;;
20203;SDS011;10261;49.010;12.034;2023-06-22T05:20:35;12.45;;;8.95;;
20203;SDS011;10261;49.010;12.034;2023-06-22T05:21:37;11.73;;;8.80;;
20203;SDS011;10261;49.010;12.034;2023-06-22T05:22:40;12.98;;;8.70;;
20203;SDS011;10261;49.010;12.034;2023-06-22T05:23:44;11.45;;;7.88;;
20203;SDS011;10261;49.010;12.034;2023-06-22T05:24:47;14.05;;;8.55;;
20203;SDS011;10261;49.010;12.034;2023-06-22T05:26:08;13.02;;;8.75;;
20203;SDS011;10261;49.010;12.034;2023-06-22T05:27:28;12.32;;;8.65;;
20203;SDS011;10261;49.010;12.034;2023-06-22T05:28:49;14.65;;;9.63;;
20203;SDS011;10261;49.010;12.034;2023-06-22T05:30:09;11.68;;;9.20;;
20203;SDS011;10261;49.010;12.034;2023-06-22T05:31:30;13.35;;;8.75;;
20203;SDS011;10261;49.010;12.034;2023-06-22T05:32:34;11.45;;;8.68;;
20203;SDS011;10261;49.010;12.034;2023-06-22T05:33:36;13.35;;;9.07;;
20203;SDS011;10261;49.010;12.034;2023-06-22T05:34:39;14.43;;;9.02;;
20203;SDS011;10261;49.010;12.034;2023-06-22T05:35:41;10.50;;;8.57;;
20203;SDS011;10261;49.010;12.034;2023-06-22T05:36:44;12.88;;;9.85;;
20203;SDS011;10261;49.010;12.034;2023-06-22T05:37:46;12.95;;;9.32;;
20203;SDS011;10261;49.010;12.034;2023-06-22T05:38:49;14.90;;;9.70;;
20203;SDS011;10261;49.010;12.034;2023-06-22T05:39:50;12.07;;;8.90;;
20203;SDS011;10261;49.010;12.034;2023-06-22T05:40:55;13.07;;;10.52;;
20203;SDS011;10261;49.010;12.034;2023-06-22T05:41:58;10.55;;;8.90;;
20203;SDS011;10261;49.010;12.034;2023-06-22T05:43:01;15.98;;;9.82;;
20203;SDS011;10261;49.010;12.034;2023-06-22T05:44:03;13.13;;;9.82;;
20203;SDS011;10261;49.010;12.034;2023-06-22T05:45:06;10.90;;;8.88;;
20203;SDS011;10261;49.010;12.034;2023-06-22T05:46:08;11.63;;;8.98;;
20203;SDS011;10261;49.010;12.034;2023-06-22T05:47:11;14.02;;;10.25;;
20203;SDS011;10261;49.010;12.034;2023-06-22T05:48:14;12.82;;;8.57;;
20203;SDS011;10261;49.010;12.034;2023-06-22T05:49:16;16.05;;;10.02;;
20203;SDS011;10261;49.010;12.034;2023-06-22T05:50:19;12.52;;;9.48;;
20203;SDS011;10261;49.010;12.034;2023-06-22T05:51:21;11.85;;;9.05;;
20203;SDS011;10261;49.010;12.034;2023-06-22T05:52:23;14.82;;;9.48;;
20203;SDS011;10261;49.010;12.034;2023-06-22T05:53:25;11.60;;;9.10;;
20203;SDS011;10261;49.010;12.034;2023-06-22T05:54:29;12.25;;;9.60;;
20203;SDS011;10261;49.010;12.034;2023-06-22T05:55:32;12.52;;;8.70;;
20203;SDS011;10261;49.010;12.034;2023-06-22T05:56:36;10.77;;;7.55;;
20203;SDS011;10261;49.010;12.034;2023-06-22T05:57:39;9.77;;;7.70;;
20203;SDS011;10261;49.010;12.034;2023-06-22T05:58:42;9.75;;;7.88;;
20203;SDS011;10261;49.010;12.034;2023-06-22T05:59:46;12.45;;;9.27;;
20203;SDS011;10261;49.010;12.034;2023-06-22T06:00:48;9.27;;;7.50;;
20203;SDS011;10261;49.010;12.034;2023-06-22T06:01:50;11.73;;;6.75;;
20203;SDS011;10261;49.010;12.034;2023-06-22T06:02:53;8.88;;;7.28;;
20203;SDS011;10261;49.010;12.034;2023-06-22T06:03:55;8.80;;;7.20;;
20203;SDS011;10261;49.010;12.034;2023-06-22T06:04:58;8.00;;;6.28;;
20203;SDS011;10261;49.010;12.034;2023-06-22T06:06:00;9.38;;;6.38;;
20203;SDS011;10261;49.010;12.034;2023-06-22T06:07:03;11.23;;;8.80;;
20203;SDS011;10261;49.010;12.034;2023-06-22T06:08:05;9.73;;;8.02;;
20203;SDS011;10261;49.010;12.034;2023-06-22T06:09:09;14.70;;;8.05;;
20203;SDS011;10261;49.010;12.034;2023-06-22T06:10:12;11.30;;;7.53;;
20203;SDS011;10261;49.010;12.034;2023-06-22T06:11:15;15.65;;;8.55;;
20203;SDS011;10261;49.010;12.034;2023-06-22T06:12:17;7.85;;;6.35;;
20203;SDS011;10261;49.010;12.034;2023-06-22T06:13:21;10.38;;;8.70;;
20203;SDS011;10261;49.010;12.034;2023-06-22T06:14:23;7.90;;;5.53;;
20203;SDS011;10261;49.010;12.034;2023-06-22T06:15:26;6.53;;;4.90;;